Date,TemperatureHighF,TemperatureAvgF,TemperatureLowF,DewpointHighF,DewpointAvgF,DewpointLowF,HumidityHigh,HumidityAvg,HumidityLow,PressureMaxIn,PressureMinIn,WindSpeedMaxMPH,WindSpeedAvgMPH,GustSpeedMaxMPH,PrecipitationSumIn
2013-1-1,25.0,22.0,19.0,18.0,14.9,13.0,79,74,67,30.16,30.05,5,2,12,0.01
2013-1-2,27.0,23.8,19.0,21.0,17.7,13.0,79,78,75,30.15,30.08,7,2,13,0.00
2013-1-3,29.0,25.3,19.0,23.0,19.3,12.0,80,78,74,30.16,30.03,7,2,15,0.00
2013-1-4,33.0,29.6,26.0,27.0,23.7,20.0,80,79,75,30.15,30.02,12,7,26,0.00
2013-1-5,36.0,30.3,24.0,29.0,19.9,11.0,78,66,40,30.20,29.94,7,2,14,0.00
2013-1-6,37.0,33.2,31.0,26.0,17.6,10.0,74,54,39,30.25,29.83,7,3,15,0.19
2013-1-7,37.0,31.7,28.0,25.0,22.4,19.0,77,69,51,30.29,30.08,9,4,18,0.01
2013-1-8,37.0,31.9,27.0,29.0,25.4,20.0,78,76,71,30.17,30.06,5,2,9,0.01
2013-1-9,43.0,38.2,31.0,34.0,30.3,25.0,79,73,55,30.40,29.95,14,5,30,0.00
2013-1-10,45.0,33.8,25.0,31.0,23.9,13.0,79,67,54,30.51,30.03,9,3,17,0.19
2013-1-11,38.0,37.9,36.0,25.0,14.9,14.0,63,39,37,30.03,29.68,8,4,20,0.78
2013-1-12,56.0,46.4,38.0,46.0,33.0,14.0,77,61,37,29.91,29.70,13,4,25,0.03
2013-1-13,37.0,31.7,25.0,28.0,14.5,10.0,72,50,38,30.09,29.80,9,3,18,0.22
2013-1-14,25.0,21.5,17.0,18.0,14.7,10.0,76,74,71,30.42,30.09,6,2,16,0.01
2013-1-15,30.0,23.4,17.0,20.0,15.6,10.0,77,72,64,30.40,30.14,5,1,8,0.00
2013-1-16,34.0,27.5,18.0,28.0,20.4,11.0,78,74,64,30.14,29.77,10,4,22,0.00
2013-1-17,34.0,26.7,20.0,28.0,17.9,10.0,77,69,61,30.33,29.95,10,4,17,0.00
2013-1-18,39.0,27.3,17.0,30.0,18.4,10.0,78,69,62,30.39,29.87,11,4,24,0.00
2013-1-19,44.0,40.9,39.0,36.0,33.1,23.0,77,74,66,29.87,29.56,18,8,35,0.00
2013-1-20,40.0,17.4,14.0,23.0,11.1,8.0,80,76,50,30.19,29.57,18,5,35,0.01
2013-1-21,15.0,13.2,10.0,10.0,7.9,5.0,81,79,78,30.15,30.03,7,2,14,0.01
2013-1-26,28.0,25.1,19.0,21.0,18.6,12.0,79,76,70,30.42,30.24,5,1,10,0.04
2013-1-27,32.0,25.9,20.0,23.0,18.7,14.0,80,74,58,30.42,30.01,8,4,15,0.01
2013-1-28,34.0,33.8,32.0,19.0,12.6,12.0,57,42,40,30.01,29.80,6,3,15,0.42
2013-1-29,34.0,34.0,34.0,12.0,12.0,12.0,40,40,40,29.95,29.33,9,4,14,1.24
2013-1-30,34.0,34.0,34.0,12.0,12.0,12.0,40,40,40,29.36,29.06,11,3,24,0.68
2013-1-31,34.0,25.1,17.0,23.0,9.7,7.0,65,53,40,29.93,29.34,7,3,17,0.01
2013-2-1,17.0,14.6,12.0,9.0,6.8,5.0,76,71,64,30.24,29.93,8,3,14,0.00
2013-2-2,17.0,13.8,4.0,12.0,7.2,-1.0,81,75,67,30.16,30.01,5,1,10,0.00
2013-2-3,20.0,14.7,6.0,13.0,8.7,1.0,81,77,71,30.03,29.89,6,1,12,0.00
2013-2-4,23.0,17.5,9.0,18.0,11.2,3.0,81,75,68,30.02,29.88,3,1,8,0.02
2013-2-5,29.0,17.6,5.0,21.0,10.7,0.0,80,74,59,30.00,29.77,7,2,14,0.01
2013-2-6,33.0,24.5,10.0,23.0,17.2,3.0,80,74,67,30.25,30.00,6,1,12,0.18
2013-2-7,34.0,29.1,27.0,24.0,21.1,16.0,81,73,52,30.20,29.86,6,3,12,0.01
2013-2-8,32.0,26.5,15.0,24.0,18.9,10.0,82,73,53,30.36,29.85,7,3,15,0.07
2013-2-9,32.0,19.4,4.0,23.0,12.9,0.0,82,76,64,30.42,30.20,7,2,13,0.07
2013-2-10,43.0,28.6,20.0,34.0,22.7,15.0,83,79,53,30.20,29.53,12,4,20,0.31
2013-2-11,45.0,35.1,30.0,38.0,27.5,18.0,81,74,50,29.87,29.48,13,8,28,0.22
2013-2-12,30.0,27.8,26.0,25.0,22.8,21.0,82,81,79,30.03,29.87,7,4,17,0.01
2013-2-13,38.0,30.1,22.0,30.0,23.8,15.0,81,77,70,29.91,29.71,6,2,12,0.02
2013-2-14,39.0,34.0,27.0,33.0,25.0,16.0,81,70,57,29.89,29.60,9,4,20,0.10
2013-2-15,28.0,23.7,21.0,23.0,17.1,14.0,83,76,64,30.14,29.89,6,3,15,0.01
2013-2-16,22.0,17.8,11.0,16.0,12.4,8.0,90,80,68,30.12,30.04,8,2,15,0.01
2013-2-17,25.0,13.2,0.0,13.0,6.2,-4.0,84,74,58,30.23,30.12,5,1,9,0.01
2013-2-18,45.0,33.0,18.0,38.0,23.1,11.0,81,66,59,30.13,29.40,10,6,20,0.12
2013-2-19,44.0,24.1,17.0,33.0,16.9,11.0,84,74,62,29.98,29.34,12,7,26,0.17
2013-2-20,21.0,18.5,16.0,16.0,13.1,11.0,83,79,73,30.30,29.98,11,5,22,0.00
2013-2-21,26.0,22.2,20.0,19.0,16.3,14.0,82,78,71,30.37,30.16,7,4,18,0.00
2013-2-22,33.0,25.2,20.0,20.0,17.4,15.0,84,72,56,30.16,29.83,12,6,21,0.00
2013-2-23,32.0,28.8,26.0,25.0,22.2,18.0,82,76,60,29.89,29.81,7,3,17,0.00
2013-2-24,36.0,30.1,23.0,28.0,23.7,16.0,82,77,67,30.14,29.88,7,2,15,0.09
2013-2-25,41.0,28.3,15.0,29.0,19.5,9.0,81,70,56,30.21,30.08,4,1,8,0.01
2013-2-26,34.0,31.0,28.0,28.0,23.4,19.0,83,74,55,30.10,29.52,12,6,26,0.05
2013-2-27,33.0,33.0,33.0,19.0,18.0,18.0,55,54,54,29.57,29.46,4,1,12,0.47
2013-2-28,35.0,32.9,30.0,30.0,23.5,18.0,82,70,54,29.99,29.56,7,5,16,0.16
2013-3-1,30.0,26.5,21.0,25.0,19.3,15.0,81,74,65,30.16,29.99,6,2,13,0.01
2013-3-2,28.0,21.0,13.0,18.0,14.4,9.0,85,76,63,30.16,30.08,7,2,18,0.00
2013-3-3,31.0,20.3,9.0,19.0,13.3,5.0,85,74,56,30.11,30.02,7,1,12,0.00
2013-3-4,35.0,21.4,7.0,20.0,13.4,3.0,90,72,49,30.17,30.07,3,1,8,0.00
2013-3-5,32.0,26.6,22.0,24.0,19.1,14.0,83,73,67,30.11,29.85,10,5,21,0.00
2013-3-6,38.0,31.8,26.0,29.0,26.0,22.0,84,79,70,30.15,29.95,6,3,15,0.00
2013-3-9,42.0,39.7,33.0,34.0,29.8,26.0,78,68,62,30.27,29.93,9,6,20,0.00
2013-3-10,50.0,44.9,41.0,42.0,35.1,28.0,83,69,53,29.93,29.66,6,2,12,0.34
2013-3-11,51.0,44.5,35.0,44.0,31.7,23.0,81,62,47,29.66,29.44,10,3,22,0.25
2013-3-12,36.0,31.5,29.0,26.0,24.5,21.0,82,75,61,29.88,29.63,12,5,20,0.03
2013-3-13,31.0,26.6,23.0,23.0,18.8,15.0,82,73,57,30.24,29.88,12,4,20,0.00
2013-3-14,35.0,25.5,19.0,22.0,18.3,14.0,83,74,56,30.27,30.22,3,1,7,0.00
2013-3-18,34.0,34.0,34.0,24.0,22.0,21.0,67,61,59,29.60,29.56,10,4,26,0.01
2013-3-19,32.0,23.8,20.0,24.0,17.2,14.0,82,76,61,29.95,29.60,13,7,26,0.01
2013-3-20,27.0,20.9,13.0,16.0,14.1,9.0,86,75,60,29.98,29.92,8,4,18,0.00
2013-3-21,29.0,22.7,13.0,24.0,17.1,8.0,83,79,73,29.98,29.91,7,2,20,0.00
2013-3-22,35.0,28.8,24.0,24.0,20.8,18.0,84,72,62,30.03,29.98,6,2,13,0.03
2013-3-23,35.0,28.9,22.0,25.0,22.4,18.0,84,76,65,30.13,30.03,4,1,8,0.01
2013-3-24,37.0,30.0,23.0,26.0,22.8,18.0,84,74,60,30.05,29.69,11,3,22,0.00
2013-3-25,38.0,33.3,30.0,28.0,25.1,21.0,80,72,61,29.97,29.65,9,5,20,0.00
2013-3-26,39.0,33.9,29.0,33.0,28.0,25.0,84,79,66,30.16,29.97,6,3,12,0.07
2013-3-27,42.0,35.9,31.0,30.0,26.6,22.0,82,69,54,30.24,30.16,9,3,20,0.09
2013-3-28,48.0,36.5,28.0,29.0,25.5,22.0,84,66,44,30.29,30.24,6,2,14,0.01
2013-3-29,49.0,35.1,23.0,32.0,24.6,17.0,83,68,43,30.29,30.22,7,2,15,0.00
2013-3-30,56.0,39.2,24.0,35.0,25.1,16.0,81,59,38,30.22,29.85,7,2,13,0.00
2013-3-31,48.0,42.8,36.0,40.0,33.4,-99.9,82,72,58,29.85,29.64,10,3,17,0.05
2013-4-1,36.0,29.5,27.0,31.0,18.3,14.0,82,63,53,30.10,29.74,10,5,20,0.01
2013-4-2,37.0,29.6,20.0,22.0,17.7,16.0,83,62,47,30.26,30.10,10,3,23,0.00
2013-4-3,43.0,31.3,21.0,22.0,18.8,16.0,83,62,36,30.45,30.25,9,2,15,0.00
2013-4-4,51.0,38.4,24.0,29.0,23.0,18.0,82,56,36,30.33,29.94,10,3,18,0.00
2013-4-5,47.0,38.3,30.0,28.0,24.9,21.0,77,59,35,30.18,29.94,8,3,16,0.00
2013-4-6,58.0,45.9,35.0,42.0,27.8,18.0,64,49,40,30.17,29.63,13,7,22,0.00
2013-4-7,55.0,44.2,33.0,47.0,36.4,28.0,83,74,62,29.98,29.52,12,5,24,0.08
2013-4-8,49.0,41.0,32.0,41.0,31.8,27.0,83,70,53,29.98,29.62,13,6,26,0.41
2013-4-9,43.0,43.0,43.0,30.0,30.0,30.0,59,59,59,30.02,29.83,8,3,26,1.28
2013-4-10,43.0,42.1,37.0,36.0,31.6,30.0,83,66,59,29.98,29.80,9,5,24,0.86
2013-4-11,38.0,36.9,36.0,32.0,28.0,25.0,83,70,63,29.95,29.61,13,8,30,1.04
2013-4-12,40.0,37.1,35.0,35.0,27.5,23.0,82,69,59,29.74,29.53,9,5,21,0.39
2013-4-13,39.0,36.6,35.0,31.0,28.6,25.0,82,73,59,29.95,29.73,13,6,24,0.09
2013-4-14,49.0,38.4,30.0,41.0,31.8,24.0,83,77,66,30.06,29.80,12,4,21,0.09
2013-4-15,64.0,53.7,44.0,55.0,44.9,35.0,80,73,54,29.90,29.76,8,4,16,0.51
2013-4-16,50.0,47.4,42.0,37.0,35.1,32.0,82,62,53,30.22,29.89,11,3,20,0.75
2013-4-17,50.0,45.0,41.0,40.0,34.5,30.0,81,66,56,30.29,29.92,11,5,29,0.90
2013-4-18,62.0,47.0,45.0,56.0,35.0,32.0,82,63,60,29.93,29.39,12,5,21,2.25
2013-4-19,61.0,38.8,32.0,52.0,32.4,26.0,84,78,65,29.74,29.38,16,8,35,0.15
2013-4-20,37.0,31.9,28.0,27.0,21.8,19.0,83,66,49,30.43,29.74,9,4,20,0.03
2013-4-21,51.0,37.7,23.0,32.0,24.8,19.0,84,62,41,30.58,30.37,10,4,17,0.01
2013-4-22,64.0,49.8,35.0,37.0,32.4,29.0,80,54,32,30.38,30.08,7,3,13,0.00
2013-4-23,63.0,50.7,41.0,50.0,38.6,29.0,81,64,48,30.08,29.80,7,3,17,0.34
2013-4-24,44.0,38.4,34.0,32.0,28.0,23.0,82,66,51,30.07,29.84,9,4,22,0.25
2013-4-25,47.0,41.3,34.0,36.0,31.9,27.0,82,70,54,30.30,29.99,12,4,22,0.17
2013-4-26,64.0,48.4,32.0,43.0,34.9,26.0,83,62,42,30.37,30.23,9,3,17,0.01
2013-4-27,69.0,56.9,41.0,47.0,41.4,35.0,82,59,35,30.26,30.02,6,2,13,0.00
2013-4-28,64.0,57.4,48.0,54.0,45.6,-99.9,82,68,56,30.02,29.77,5,2,14,0.00
2013-4-29,69.0,58.8,50.0,56.0,45.8,34.0,80,62,54,29.88,29.77,8,2,13,0.00
2013-4-30,78.0,65.9,57.0,62.0,55.6,42.0,81,70,57,29.91,29.79,13,6,26,0.45
2013-5-1,84.0,72.9,62.0,62.0,58.8,55.0,81,63,42,30.11,29.91,6,2,17,0.08
2013-5-2,82.0,69.0,58.0,62.0,57.0,51.0,81,67,44,30.12,30.01,7,2,13,0.00
2013-5-3,79.0,65.3,53.0,60.0,52.0,41.0,81,64,39,30.05,29.91,11,3,20,0.00
2013-5-4,74.0,66.5,58.0,51.0,45.9,42.0,63,48,35,30.01,29.93,8,4,16,0.00
2013-5-5,75.0,64.4,56.0,50.0,43.3,37.0,60,48,30,30.02,29.93,7,3,16,0.00
2013-5-6,76.0,62.6,50.0,49.0,42.2,38.0,72,50,27,30.00,29.91,5,1,12,0.00
2013-5-7,78.0,64.4,48.0,54.0,48.5,40.0,82,58,40,30.01,29.92,5,1,12,0.00
2013-5-8,79.0,66.0,53.0,56.0,51.8,46.0,82,62,40,29.98,29.89,5,1,17,0.00
2013-5-9,81.0,64.0,50.0,53.0,47.9,40.0,82,59,32,29.92,29.82,8,1,16,0.01
2013-5-10,57.0,53.4,47.0,51.0,40.3,-99.9,81,64,58,29.88,29.72,5,2,18,0.37
2013-5-11,52.0,45.9,39.0,46.0,37.7,33.0,82,73,64,29.90,29.72,10,3,21,0.06
2013-5-12,45.0,39.4,34.0,35.0,29.8,-99.9,82,71,54,30.09,29.89,9,3,20,0.01
2013-5-13,53.0,41.8,29.0,36.0,27.9,21.0,83,60,37,30.16,30.03,9,2,14,0.00
2013-5-14,72.0,59.3,43.0,55.0,44.4,30.0,81,58,47,30.03,29.62,7,2,18,0.00
2013-5-15,75.0,67.6,54.0,61.0,52.8,46.0,81,60,42,29.76,29.50,6,2,15,0.01
2013-5-16,80.0,57.5,46.0,54.0,25.2,-99.9,81,58,37,29.95,29.76,5,1,12,0.00
2013-5-17,68.0,60.1,53.0,49.0,39.0,-99.9,66,56,43,30.06,29.95,7,3,15,0.00
2013-5-18,82.0,67.2,55.0,63.0,52.6,47.0,80,61,43,30.08,29.93,5,2,9,0.00
2013-5-19,86.0,73.3,59.0,65.0,57.9,48.0,72,59,49,29.94,29.75,6,1,14,0.00
2013-5-20,85.0,76.4,69.0,71.0,64.9,61.0,82,69,45,29.79,29.67,9,2,20,0.10
2013-5-21,80.0,71.7,64.0,67.0,61.2,51.0,82,70,60,29.69,29.62,7,2,20,0.26
2013-5-22,68.0,64.7,60.0,62.0,52.1,45.0,81,64,58,29.65,29.56,9,2,18,0.59
2013-5-23,60.0,56.0,43.0,49.0,44.1,36.0,82,65,58,30.19,29.65,6,2,18,0.44
2013-5-24,58.0,46.6,36.0,45.0,38.2,30.0,83,73,57,30.36,30.19,6,2,13,0.02
2013-5-25,66.0,51.6,39.0,43.0,36.4,27.0,82,58,33,30.37,30.24,2,0,8,0.00
2013-5-26,69.0,56.6,43.0,44.0,40.3,33.0,82,57,36,30.30,30.16,5,1,9,0.00
2013-5-27,58.0,54.1,51.0,47.0,41.4,38.0,80,62,53,30.18,29.90,9,4,16,0.04
2013-5-28,75.0,58.8,52.0,67.0,43.9,38.0,79,58,46,29.91,29.69,7,2,16,0.99
2013-5-29,79.0,71.4,69.0,68.0,54.9,48.0,79,58,46,29.91,29.71,6,1,14,0.23
2013-5-30,85.0,76.2,67.0,73.0,66.1,55.0,80,71,60,29.91,29.80,6,2,16,0.02
2013-5-31,78.0,72.9,67.0,68.0,61.9,49.0,79,69,52,29.85,29.71,6,3,15,0.24
2013-6-1,78.0,70.9,67.0,65.0,59.7,49.0,79,68,53,29.73,29.60,9,3,20,0.31
2013-6-2,67.0,59.7,46.0,60.0,46.2,-99.9,81,65,53,29.99,29.58,6,3,12,0.27
2013-6-3,65.0,52.4,41.0,49.0,39.3,28.0,80,62,48,30.07,29.98,5,1,12,0.01
2013-6-4,71.0,59.5,46.0,54.0,46.1,36.0,81,62,47,30.15,30.06,3,1,9,0.00
2013-6-5,69.0,61.6,58.0,50.0,46.3,40.0,75,58,41,30.10,29.95,6,2,15,0.03
2013-6-6,64.0,58.6,55.0,54.0,50.4,46.0,81,74,67,29.96,29.85,6,1,10,0.11
2013-7-20,85.0,78.0,70.0,62.0,56.9,-99.9,65,51,42,29.92,29.83,6,2,14,0.00
2013-7-21,84.0,70.9,60.0,69.0,57.3,49.0,93,63,47,30.00,29.88,5,1,12,0.73
2013-7-22,85.0,72.6,65.0,69.0,65.8,63.0,96,81,55,29.97,29.72,4,1,10,0.87
2013-7-23,78.0,71.6,59.0,70.0,62.8,49.0,93,75,54,29.93,29.64,9,2,20,0.01
2013-7-24,75.0,61.3,49.0,53.0,49.1,47.0,93,67,40,30.05,29.93,6,1,12,0.01
2013-7-25,77.0,63.8,52.0,57.0,53.2,50.0,97,72,44,30.10,30.04,7,1,12,0.00
2013-7-26,75.0,65.9,59.0,63.0,58.3,53.0,95,77,60,30.05,29.86,7,1,16,0.22
2013-7-27,68.0,62.0,55.0,62.0,56.8,49.0,98,84,68,29.87,29.81,8,2,17,0.20
2013-7-28,65.0,57.6,52.0,56.0,53.3,49.0,97,86,64,29.96,29.80,8,2,16,0.45
2013-7-29,68.0,60.5,57.0,57.0,55.5,54.0,95,84,63,30.19,29.94,6,1,12,0.07
2013-7-30,79.0,63.9,49.0,63.0,55.2,48.0,98,76,47,30.23,30.10,4,0,8,0.00
2013-7-31,70.0,65.9,63.0,66.0,63.0,60.0,95,90,77,30.12,29.91,2,0,7,0.11
2013-8-1,76.0,68.0,61.0,63.0,59.1,53.0,98,76,45,29.94,29.90,6,2,15,0.01
2013-8-2,74.0,65.3,58.0,67.0,61.4,56.0,95,87,78,29.93,29.83,7,1,13,0.02
2013-8-3,76.0,66.6,57.0,63.0,56.5,52.0,98,73,44,30.08,29.91,5,1,15,0.01
2013-8-4,74.0,62.5,52.0,57.0,52.8,48.0,97,73,47,30.21,30.08,6,1,12,0.01
2013-8-5,73.0,59.9,48.0,61.0,53.5,47.0,98,81,59,30.12,29.93,2,0,7,0.00
2013-8-6,76.0,69.0,64.0,69.0,64.7,60.0,94,86,76,29.93,29.84,4,1,9,0.02
2013-8-7,81.0,72.3,63.0,72.0,67.1,61.0,96,84,69,29.93,29.79,5,2,13,0.13
2013-8-8,79.0,67.1,58.0,62.0,55.0,49.0,96,69,38,30.03,29.93,4,1,12,0.01
2013-8-9,79.0,67.4,54.0,62.0,57.6,53.0,97,73,50,30.01,29.96,7,1,14,0.00
2013-8-10,79.0,69.0,59.0,61.0,56.3,52.0,95,67,40,30.14,30.01,4,1,12,0.00
2013-8-11,77.0,66.5,57.0,60.0,57.0,54.0,94,74,48,30.12,30.04,4,1,12,0.00
2013-8-12,75.0,66.9,64.0,69.0,63.9,59.0,97,90,78,30.05,29.85,2,0,5,0.61
2013-8-13,67.0,59.2,52.0,61.0,48.8,-99.9,92,72,49,30.12,29.90,5,2,17,0.02
2013-8-14,70.0,55.7,45.0,54.0,46.2,-99.9,96,75,46,30.22,30.12,4,1,12,0.00
2013-8-15,74.0,54.7,47.0,60.0,37.9,-99.9,98,74,49,30.17,30.09,6,1,14,0.00
2013-8-16,80.0,63.1,51.0,61.0,50.9,-99.9,98,73,39,30.20,30.13,5,1,10,0.00
2013-8-17,82.0,67.0,52.0,62.0,54.5,48.0,98,70,31,30.26,30.17,2,0,6,0.00
2013-8-18,83.0,66.1,53.0,61.0,54.3,-99.9,97,72,41,30.23,30.11,3,0,8,0.00
2013-8-19,81.0,62.5,52.0,63.0,45.3,-99.9,98,75,47,30.12,30.04,6,1,14,0.00
2013-8-20,84.0,70.4,60.0,68.0,60.6,-99.9,95,76,52,30.12,30.05,6,1,13,0.00
2013-8-21,87.0,74.9,63.0,68.0,65.2,62.0,96,74,49,30.08,29.95,6,2,17,0.00
2013-8-22,78.0,69.9,64.0,70.0,66.9,63.0,98,90,70,30.08,29.95,7,1,18,0.09
2013-8-23,81.0,67.6,52.0,64.0,54.4,48.0,97,69,32,30.19,30.08,6,1,12,0.01
2013-8-24,83.0,68.0,55.0,60.0,56.4,54.0,98,71,38,30.29,30.18,4,1,9,0.00
2013-8-25,86.0,72.6,62.0,66.0,59.7,-99.9,87,67,49,30.26,30.11,8,2,15,0.00
2013-8-26,83.0,76.6,68.0,71.0,67.9,64.0,90,75,66,30.14,29.96,5,2,14,0.00
2013-8-27,90.0,78.6,73.0,76.0,72.9,71.0,96,83,59,29.96,29.84,5,2,12,0.01
2013-8-28,84.0,79.1,72.0,73.0,70.8,69.0,94,77,61,30.01,29.93,4,1,9,0.14
2013-8-29,89.0,76.0,66.0,70.0,66.9,64.0,98,77,44,30.08,29.98,2,0,6,0.00
2013-8-30,88.0,75.8,66.0,73.0,68.8,65.0,98,81,56,29.98,29.72,7,2,18,0.00
2013-8-31,81.0,70.8,63.0,68.0,64.3,62.0,98,81,58,29.85,29.78,4,1,12,0.00
2013-9-1,84.0,71.2,63.0,71.0,64.9,-99.9,97,84,62,29.84,29.70,3,1,10,0.00
2013-9-2,71.0,64.8,60.0,69.0,58.9,52.0,96,81,66,29.96,29.74,5,2,12,0.00
2013-9-3,73.0,62.9,53.0,56.0,53.8,50.0,92,74,54,30.06,29.96,5,1,12,0.00
2013-9-4,78.0,65.9,55.0,64.0,58.7,53.0,97,79,52,30.11,30.02,8,2,17,0.00
2013-9-5,74.0,62.4,53.0,60.0,49.0,41.0,93,65,33,30.28,30.11,5,1,12,0.00
2013-9-6,81.0,63.3,48.0,57.0,51.0,46.0,95,69,35,30.27,30.03,3,1,10,0.00
2013-9-7,81.0,70.5,64.0,69.0,63.3,56.0,92,78,66,30.03,29.89,6,1,15,0.04
2013-9-8,77.0,68.2,65.0,66.0,58.9,-99.9,96,76,50,30.08,29.94,5,2,14,0.01
2013-9-9,85.0,72.0,60.0,73.0,65.7,56.0,98,82,64,30.03,29.82,3,1,9,1.16
2013-9-10,91.0,82.7,75.0,73.0,67.9,64.0,89,63,41,29.96,29.82,9,2,20,0.01
2013-9-11,83.0,75.9,66.0,71.0,66.8,64.0,93,74,52,30.02,29.93,6,1,12,0.00
2013-9-12,67.0,66.1,65.0,66.0,64.9,63.0,97,96,94,29.95,29.90,1,0,3,0.00
2013-9-14,62.0,54.9,50.0,51.0,49.3,47.0,91,82,65,30.09,30.07,0,0,3,0.00
2013-9-15,59.0,53.7,49.0,57.0,49.3,-99.9,97,88,72,30.16,30.04,0,0,2,0.11
2013-9-16,61.0,54.5,46.0,55.0,48.4,44.0,97,81,57,30.38,30.16,5,2,10,0.02
2013-9-17,69.0,53.7,40.0,51.0,45.3,39.0,96,75,46,30.41,30.20,3,1,10,0.00
2013-9-18,68.0,54.6,53.0,52.0,49.9,49.0,88,84,79,30.20,29.98,1,0,3,0.00
2013-9-19,74.0,68.7,64.0,69.0,64.1,56.0,97,86,66,29.98,29.82,4,1,12,0.54
2013-9-20,73.0,69.9,64.0,70.0,66.0,59.0,94,87,84,29.84,29.72,7,2,16,0.01
2013-9-21,63.0,58.8,53.0,59.0,52.3,48.0,92,80,60,29.92,29.71,6,2,16,0.00
2013-9-22,55.0,50.5,44.0,49.0,43.2,-99.9,97,79,66,30.10,29.92,4,1,10,0.00
2013-9-23,64.0,49.8,38.0,48.0,43.0,37.0,97,80,51,30.19,30.10,3,1,10,0.00
2013-9-24,69.0,54.8,44.0,51.0,47.4,43.0,95,78,49,30.15,29.99,3,1,8,0.00
2013-9-25,72.0,57.3,46.0,53.0,48.8,45.0,97,77,45,30.02,29.97,3,1,10,0.00
2013-9-26,75.0,58.5,46.0,53.0,49.3,45.0,97,75,39,30.12,30.00,3,0,7,0.00
2013-9-27,79.0,62.2,49.0,56.0,52.0,48.0,96,73,41,30.22,30.12,3,1,12,0.00
2013-9-28,80.0,66.8,54.0,59.0,54.4,52.0,95,68,41,30.15,29.92,4,1,12,0.00
2013-9-29,72.0,61.1,51.0,63.0,51.4,-99.9,96,75,53,30.01,29.90,5,1,13,0.37
2013-9-30,72.0,58.1,48.0,56.0,51.6,46.0,97,81,47,30.01,29.91,3,1,12,0.01
2013-10-1,70.0,66.0,55.0,64.0,61.3,52.0,92,85,80,29.92,29.91,3,1,9,0.00
2013-10-2,76.0,64.4,51.0,63.0,50.7,39.0,98,68,26,30.10,29.92,3,0,9,0.00
2013-10-3,77.0,64.8,50.0,68.0,58.5,47.0,94,80,67,30.04,29.89,4,1,13,0.00
2013-10-4,77.0,69.6,65.0,68.0,65.5,63.0,96,87,72,29.99,29.90,4,1,13,0.02
2013-10-5,76.0,69.6,65.0,71.0,66.9,64.0,98,91,83,29.98,29.78,6,1,12,0.84
2013-10-6,71.0,59.6,50.0,68.0,57.1,48.0,95,91,70,29.78,29.67,6,1,14,0.29
2013-10-7,60.0,52.3,45.0,53.0,48.0,44.0,97,86,62,30.10,29.69,6,1,14,0.25
2013-10-8,73.0,55.9,42.0,54.0,47.7,41.0,98,77,47,30.24,30.10,3,1,12,0.01
2013-10-9,71.0,57.2,44.0,51.0,47.9,43.0,97,74,46,30.30,30.18,2,0,7,0.00
2013-10-10,73.0,56.8,43.0,54.0,47.8,42.0,97,75,41,30.22,30.11,2,0,5,0.00
2013-10-11,71.0,56.1,44.0,51.0,46.6,42.0,94,74,37,30.15,30.04,2,0,10,0.00
2013-10-12,77.0,63.0,49.0,62.0,54.3,46.0,96,75,46,30.10,29.98,4,1,14,0.31
2013-10-13,61.0,52.4,42.0,59.0,45.5,-99.9,98,81,58,30.40,30.10,7,1,14,0.32
2013-10-14,62.0,48.8,37.0,45.0,40.1,36.0,98,75,41,30.45,30.26,4,1,12,0.01
2013-10-15,64.0,54.9,46.0,61.0,51.2,43.0,97,88,78,30.25,29.78,4,2,12,0.30
2013-10-16,62.0,53.1,51.0,61.0,49.9,47.0,97,89,82,29.89,29.78,5,2,14,0.30
2013-10-17,52.0,49.0,40.0,51.0,47.8,39.0,97,96,91,29.89,29.75,5,1,10,0.61
2013-10-18,58.0,46.7,37.0,51.0,42.9,36.0,99,88,72,29.91,29.84,8,2,18,0.03
2013-10-19,52.0,45.8,41.0,44.0,40.9,34.0,96,84,51,29.90,29.75,7,1,18,0.21
2013-10-20,56.0,46.9,37.0,50.0,39.9,-99.9,98,80,54,29.90,29.74,4,1,12,0.14
2013-10-21,54.0,47.9,41.0,52.0,42.1,28.0,96,81,60,29.90,29.76,7,3,20,0.17
2013-10-22,48.0,41.5,34.0,37.0,32.6,28.0,95,71,59,29.93,29.89,6,3,20,0.10
2013-10-23,44.0,37.2,32.0,37.0,33.1,30.0,98,86,59,29.98,29.88,7,1,14,0.12
2013-10-24,43.0,37.1,34.0,38.0,34.2,32.0,97,89,71,30.23,29.96,6,1,13,0.15
2013-10-25,45.0,42.0,35.0,37.0,33.4,29.0,95,72,54,30.36,30.02,9,2,18,0.01
2013-10-26,53.0,47.9,42.0,42.0,36.9,33.0,78,66,57,30.03,29.77,13,5,28,0.06
2013-10-27,52.0,42.5,35.0,37.0,33.6,-99.9,95,74,54,30.06,29.98,9,2,20,0.02
2013-10-28,48.0,39.8,33.0,39.0,33.3,-99.9,96,82,66,30.43,30.04,5,1,15,0.00
2013-10-29,50.0,42.9,39.0,39.0,34.0,30.0,82,71,64,30.45,30.24,4,1,10,0.00
2013-10-30,64.0,49.8,38.0,55.0,43.8,34.0,95,81,58,30.24,29.88,3,1,8,0.37
2013-10-31,63.0,59.9,57.0,62.0,58.9,54.0,98,96,95,29.88,29.09,9,2,20,0.94
2013-11-1,55.0,47.3,45.0,54.0,45.1,42.0,97,92,83,29.68,29.17,14,5,28,0.27
2013-11-2,48.0,45.0,42.0,45.0,41.1,36.0,97,87,63,30.12,29.67,6,1,13,0.18
2013-11-3,51.0,41.9,34.0,39.0,33.6,-99.9,96,76,55,30.40,30.12,3,1,9,0.01
2013-11-4,53.0,45.1,39.0,41.0,35.0,33.0,85,69,50,30.40,30.22,11,4,20,0.00
2013-11-5,60.0,53.3,50.0,49.0,46.0,41.0,86,76,67,30.31,30.06,4,2,12,0.00
2013-11-6,56.0,50.1,40.0,55.0,47.9,38.0,97,92,71,30.06,29.74,10,4,24,1.02
2013-11-7,41.0,38.2,35.0,39.0,33.4,29.0,93,83,80,30.12,30.04,6,3,14,0.87
2013-11-16,56.0,51.3,43.0,54.0,44.9,-99.9,95,83,79,29.99,29.64,11,5,24,0.23
2013-11-17,64.0,56.3,43.0,61.0,54.0,39.0,96,92,78,29.65,29.15,18,6,45,1.64
2013-11-18,46.0,38.4,35.0,39.0,30.5,26.0,79,73,66,30.18,29.55,13,6,36,0.71
2013-11-19,42.0,35.3,28.0,27.0,25.1,24.0,84,67,48,30.40,30.20,7,1,14,0.00
2013-11-20,45.0,35.9,29.0,33.0,25.9,24.0,83,68,43,30.40,30.21,7,2,13,0.00
2013-11-21,51.0,45.0,39.0,45.0,40.5,35.0,96,84,73,30.25,30.17,5,1,10,0.14
2013-11-22,45.0,36.4,26.0,44.0,32.9,24.0,97,87,72,30.44,30.17,9,3,20,0.01
2013-11-23,31.0,23.8,18.0,25.0,15.3,-99.9,91,72,54,30.63,30.34,13,6,26,0.00
2013-11-24,25.0,21.0,18.0,19.0,13.9,9.0,87,74,56,30.67,30.40,5,2,15,0.00
2013-11-25,34.0,27.4,22.0,31.0,21.3,12.0,94,78,62,30.40,30.07,9,4,20,0.00
2013-11-26,34.0,31.4,25.0,30.0,26.7,17.0,89,82,68,30.08,29.98,9,3,16,0.01
2013-11-27,29.0,23.8,19.0,21.0,16.2,12.0,84,73,56,30.25,30.07,14,4,21,0.01
2013-11-28,27.0,23.8,19.0,23.0,20.0,15.0,93,86,69,30.47,30.25,4,1,12,0.00
2013-11-29,32.0,24.9,15.0,25.0,21.0,13.0,94,86,76,30.68,30.47,3,1,8,0.02
2013-11-30,45.0,35.7,27.0,33.0,26.3,-99.9,81,71,62,30.53,30.07,7,2,16,0.02
2013-12-1,41.0,37.1,33.0,35.0,31.2,27.0,93,79,65,30.11,30.03,6,1,12,0.01
2013-12-2,41.0,35.3,31.0,32.0,28.5,24.0,92,77,60,30.03,29.89,3,1,9,0.00
2013-12-3,35.0,33.7,31.0,34.0,30.9,24.0,97,89,69,29.91,29.80,7,4,14,0.45
2013-12-4,57.0,43.4,35.0,54.0,42.1,34.0,98,96,83,29.85,29.56,8,3,23,0.15
2013-12-5,55.0,55.0,55.0,52.0,52.0,52.0,89,88,88,29.58,29.56,5,5,20,0.02
2013-12-11,13.0,13.0,13.0,10.0,10.0,10.0,89,89,89,30.50,30.49,1,0,3,0.02
2013-12-12,25.0,17.1,11.0,22.0,14.2,7.0,92,88,82,30.49,30.21,7,3,15,0.02
2013-12-13,28.0,25.7,22.0,24.0,20.8,17.0,88,82,73,30.28,30.18,5,2,12,0.01
2013-12-14,22.0,19.5,17.0,19.0,15.7,-99.9,91,87,81,30.27,29.94,7,4,17,0.01
2013-12-15,23.0,19.4,15.0,21.0,16.1,11.0,93,87,78,30.09,29.87,8,2,16,0.00
2013-12-16,23.0,15.4,5.0,15.0,10.9,2.0,91,83,66,30.21,30.05,5,1,9,0.00
2013-12-17,31.0,25.8,18.0,29.0,23.4,15.0,95,91,82,30.05,29.88,9,2,18,0.00
2013-12-18,30.0,27.8,26.0,26.0,20.8,15.0,92,75,60,30.16,29.85,7,3,15,0.00
2013-12-19,39.0,34.8,30.0,34.0,31.1,22.0,96,86,72,29.98,29.83,5,2,12,0.07
2013-12-20,33.0,32.0,30.0,32.0,30.7,28.0,96,95,94,29.90,29.77,4,2,12,0.10
2013-12-21,33.0,31.7,30.0,32.0,29.6,-99.9,98,95,93,29.89,29.72,1,0,6,0.08
2013-12-22,32.0,30.2,26.0,31.0,28.5,25.0,96,94,91,30.03,29.62,0,0,0,0.01
2013-12-23,27.0,23.7,18.0,25.0,21.9,16.0,95,92,85,30.34,30.03,0,0,0,0.00
2013-12-24,22.0,17.3,12.0,19.0,14.7,10.0,93,89,81,30.53,30.34,0,0,0,0.01
2013-12-25,25.0,20.5,12.0,24.0,18.2,10.0,94,91,86,30.50,30.09,0,0,0,0.01
2013-12-26,27.0,24.9,22.0,26.0,22.7,18.0,95,91,82,30.26,30.05,0,0,0,0.00
2013-12-27,40.0,32.1,27.0,34.0,29.4,26.0,96,90,76,30.32,30.05,8,1,22,0.19
2013-12-28,47.0,39.6,32.0,36.0,32.5,-99.9,95,79,63,30.09,29.85,8,3,17,0.25
2013-12-29,43.0,31.8,19.0,34.0,25.9,11.0,92,79,66,30.10,29.74,11,5,20,0.01
2013-12-30,19.0,16.7,15.0,14.0,10.7,6.0,85,77,67,30.31,30.10,7,2,12,0.00
2013-12-31,18.0,15.6,13.0,15.0,12.5,10.0,90,87,81,30.39,30.14,6,2,15,0.00
2014-1-1,14.0,12.3,11.0,11.0,7.1,4.0,87,80,68,30.44,30.31,5,2,12,0.00
2014-1-2,14.0,11.2,-1.0,10.0,5.0,-4.0,85,76,61,30.38,30.24,8,4,18,0.00